createdAt,value
2023-02-17T00:01:22.707Z,59.38
2023-02-17T00:03:50.845Z,61.75
2023-02-17T00:06:21.902Z,62.47
2023-02-17T00:08:50.095Z,56.17
2023-02-17T00:11:17.963Z,50.45
2023-02-17T00:13:45.240Z,62.60
2023-02-17T00:16:25.280Z,60.75
2023-02-17T00:18:55.453Z,63.90
2023-02-17T00:21:24.769Z,65.40
2023-02-17T00:23:52.604Z,57.95
2023-02-17T00:26:20.895Z,53.13
2023-02-17T00:28:48.703Z,50.85
2023-02-17T00:31:23.551Z,53.40
2023-02-17T00:33:50.664Z,49.35
2023-02-17T00:36:19.838Z,59.33
2023-02-17T00:38:53.629Z,52.88
2023-02-17T00:41:21.132Z,54.40
2023-02-17T00:43:48.753Z,65.90
2023-02-17T00:46:17.267Z,55.25
2023-02-17T00:48:44.220Z,50.53
2023-02-17T00:51:12.216Z,61.63
2023-02-17T00:53:39.278Z,55.13
2023-02-17T00:56:07.300Z,59.58
2023-02-17T00:58:35.392Z,56.28
2023-02-17T01:01:02.851Z,50.40
2023-02-17T01:03:29.711Z,55.00
2023-02-17T01:05:56.804Z,58.60
2023-02-17T01:08:25.546Z,58.45
2023-02-17T01:10:53.403Z,54.55
2023-02-17T01:13:20.668Z,55.00
2023-02-17T01:15:50.591Z,56.90
2023-02-17T01:18:19.144Z,57.72
2023-02-17T01:20:46.247Z,58.40
2023-02-17T01:23:14.089Z,57.35
2023-02-17T01:25:44.122Z,51.78
2023-02-17T01:28:20.332Z,58.70
2023-02-17T01:30:48.879Z,56.63
2023-02-17T01:33:15.755Z,48.13
2023-02-17T01:35:42.855Z,63.53
2023-02-17T01:38:09.822Z,57.40
2023-02-17T01:40:49.488Z,53.55
2023-02-17T01:43:17.778Z,51.63
2023-02-17T01:45:53.673Z,53.78
2023-02-17T01:48:32.366Z,43.88
2023-02-17T01:51:05.135Z,50.33
2023-02-17T01:53:40.587Z,44.67
2023-02-17T01:56:08.694Z,49.47
2023-02-17T01:58:35.634Z,52.50
2023-02-17T02:01:05.082Z,43.78
2023-02-17T02:03:36.311Z,45.50
2023-02-17T02:06:11.300Z,50.33
2023-02-17T02:09:03.951Z,50.50
2023-02-17T02:11:33.438Z,51.85
2023-02-17T02:14:00.876Z,53.25
2023-02-17T02:16:36.591Z,49.38
2023-02-17T02:19:21.422Z,49.30
2023-02-17T02:22:26.188Z,45.85
2023-02-17T02:25:31.108Z,52.35
2023-02-17T02:28:33.248Z,45.08
2023-02-17T02:31:00.010Z,51.63
2023-02-17T02:33:43.365Z,48.67
2023-02-17T02:36:20.607Z,54.42
2023-02-17T02:39:02.815Z,52.08
2023-02-17T02:41:53.569Z,48.35
2023-02-17T02:44:21.735Z,53.67
2023-02-17T02:47:03.998Z,47.58
2023-02-17T02:49:33.712Z,48.47
2023-02-17T02:52:41.796Z,52.80
2023-02-17T02:55:26.827Z,50.28
2023-02-17T02:58:15.333Z,54.00
2023-02-17T03:01:14.138Z,45.42
2023-02-17T03:03:53.776Z,50.03
2023-02-17T03:06:33.000Z,45.28
2023-02-17T03:09:09.151Z,48.28
2023-02-17T03:11:40.355Z,47.70
2023-02-17T03:14:13.218Z,49.28
2023-02-17T03:16:42.285Z,50.80
2023-02-17T03:19:10.139Z,49.20
2023-02-17T03:21:48.037Z,48.10
2023-02-17T03:24:15.052Z,47.60
2023-02-17T03:26:42.133Z,51.33
2023-02-17T03:29:09.335Z,54.28
2023-02-17T03:31:36.967Z,45.70
2023-02-17T03:34:04.094Z,47.22
2023-02-17T03:36:31.214Z,47.90
2023-02-17T03:38:58.853Z,49.47
2023-02-17T03:41:27.007Z,49.53
2023-02-17T03:43:53.833Z,51.17
2023-02-17T03:46:22.449Z,49.10
2023-02-17T03:48:49.260Z,42.88
2023-02-17T03:51:18.938Z,46.95
2023-02-17T03:53:46.230Z,48.15
2023-02-17T03:56:14.081Z,44.00
2023-02-17T03:58:42.081Z,46.60
2023-02-17T04:01:11.378Z,40.25
2023-02-17T04:03:40.755Z,37.60
2023-02-17T04:06:09.468Z,43.80
2023-02-17T04:08:37.130Z,34.88
2023-02-17T04:11:07.060Z,36.10
2023-02-17T04:13:36.965Z,34.90
2023-02-17T04:16:05.660Z,38.95
2023-02-17T04:18:32.950Z,34.83
2023-02-17T04:21:00.621Z,42.92
2023-02-17T04:23:27.766Z,42.30
2023-02-17T04:25:54.915Z,36.15
2023-02-17T04:28:22.317Z,32.72
2023-02-17T04:30:52.492Z,42.40
2023-02-17T04:33:19.425Z,34.70
2023-02-17T04:35:47.615Z,45.45
2023-02-17T04:38:14.445Z,33.17
2023-02-17T04:40:41.998Z,38.60
2023-02-17T04:43:09.234Z,37.72
2023-02-17T04:45:37.426Z,34.50
2023-02-17T04:48:04.710Z,40.17
2023-02-17T04:50:31.491Z,37.67
2023-02-17T04:53:01.166Z,43.72
2023-02-17T04:55:29.681Z,37.25
2023-02-17T04:57:56.886Z,47.38
2023-02-17T05:00:23.801Z,43.92
2023-02-17T05:02:53.559Z,38.55
2023-02-17T05:05:21.123Z,43.53
2023-02-17T05:07:50.524Z,35.53
2023-02-17T05:10:18.765Z,37.63
2023-02-17T05:12:46.848Z,38.50
2023-02-17T05:15:13.691Z,38.53
2023-02-17T05:17:40.884Z,45.90
2023-02-17T05:20:08.938Z,36.53
2023-02-17T05:22:36.088Z,47.67
2023-02-17T05:25:03.587Z,39.80
2023-02-17T05:27:31.075Z,44.78
2023-02-17T05:29:57.890Z,43.00
2023-02-17T05:32:27.878Z,40.67
2023-02-17T05:34:55.081Z,44.55
2023-02-17T05:37:22.490Z,43.15
2023-02-17T05:39:49.340Z,40.30
2023-02-17T05:42:16.398Z,35.05
2023-02-17T05:44:44.677Z,43.35
2023-02-17T05:47:11.705Z,38.47
2023-02-17T05:49:41.435Z,52.65
2023-02-17T05:52:08.565Z,44.35
2023-02-17T05:54:35.346Z,49.13
2023-02-17T05:57:03.855Z,38.63
2023-02-17T05:59:31.966Z,39.42
2023-02-17T06:02:02.177Z,46.80
2023-02-17T06:04:29.394Z,48.75
2023-02-17T06:06:58.759Z,49.78
2023-02-17T06:09:29.321Z,43.50
2023-02-17T06:11:56.995Z,44.45
2023-02-17T06:14:23.833Z,46.88
2023-02-17T06:16:50.933Z,41.10
2023-02-17T06:19:17.694Z,42.17
2023-02-17T06:21:46.229Z,54.30
2023-02-17T06:24:12.981Z,46.95
2023-02-17T06:26:40.039Z,49.00
2023-02-17T06:29:09.550Z,42.25
2023-02-17T06:31:36.770Z,43.80
2023-02-17T06:34:06.409Z,45.35
2023-02-17T06:36:33.858Z,43.95
2023-02-17T06:39:03.528Z,46.47
2023-02-17T06:41:30.917Z,52.05
2023-02-17T06:43:57.685Z,50.35
2023-02-17T06:46:24.872Z,46.42
2023-02-17T06:48:51.683Z,51.13
2023-02-17T06:51:21.593Z,47.88
2023-02-17T06:53:48.392Z,49.47
2023-02-17T06:56:15.440Z,45.78
2023-02-17T06:58:42.195Z,48.15
2023-02-17T07:01:17.268Z,54.97
2023-02-17T07:03:44.344Z,48.72
2023-02-17T07:06:11.417Z,49.50
2023-02-17T07:08:39.293Z,50.47
2023-02-17T07:11:07.916Z,54.85
2023-02-17T07:13:35.386Z,57.10
2023-02-17T07:16:02.654Z,56.08
2023-02-17T07:18:29.730Z,59.03
2023-02-17T07:20:57.313Z,52.20
2023-02-17T07:23:24.108Z,58.83
2023-02-17T07:25:51.190Z,61.92
2023-02-17T07:28:18.051Z,65.80
2023-02-17T07:30:45.434Z,60.78
2023-02-17T07:33:12.618Z,64.40
2023-02-17T07:35:46.537Z,66.05
2023-02-17T07:38:13.395Z,58.60
2023-02-17T07:40:40.981Z,54.80
2023-02-17T07:43:10.850Z,57.65
2023-02-17T07:45:38.194Z,54.42
2023-02-17T07:48:07.881Z,53.13
2023-02-17T07:50:34.970Z,43.38
2023-02-17T07:53:01.793Z,44.83
2023-02-17T07:55:28.898Z,48.47
2023-02-17T07:57:59.941Z,46.42
2023-02-17T08:00:28.091Z,44.72
2023-02-17T08:02:55.944Z,51.70
2023-02-17T08:05:23.062Z,55.55
2023-02-17T08:08:09.867Z,45.50
2023-02-17T08:10:59.788Z,50.72
2023-02-17T08:13:27.761Z,53.55
2023-02-17T08:15:54.901Z,53.08
2023-02-17T08:18:21.678Z,56.45
2023-02-17T08:20:50.440Z,52.58
2023-02-17T08:23:17.262Z,61.80
2023-02-17T08:25:44.586Z,60.33
2023-02-17T08:28:12.219Z,55.10
2023-02-17T08:30:39.675Z,53.38
2023-02-17T08:33:07.018Z,58.05
2023-02-17T08:35:34.071Z,51.63
2023-02-17T08:38:00.874Z,51.38
2023-02-17T08:40:29.090Z,56.10
2023-02-17T08:42:55.927Z,53.90
2023-02-17T08:45:23.966Z,63.83
2023-02-17T08:47:51.069Z,64.05
2023-02-17T08:50:20.016Z,71.45
2023-02-17T08:52:47.481Z,59.28
2023-02-17T08:55:15.215Z,57.30
2023-02-17T08:57:42.124Z,59.30
2023-02-17T09:00:10.936Z,51.67
2023-02-17T09:02:37.765Z,54.65
2023-02-17T09:05:08.165Z,60.08
2023-02-17T09:07:35.004Z,48.90
2023-02-17T09:10:04.800Z,48.90
2023-02-17T09:12:31.723Z,47.17
2023-02-17T09:14:58.831Z,34.45
2023-02-17T09:17:26.061Z,33.35
2023-02-17T09:19:53.279Z,25.90
2023-02-17T09:22:31.657Z,29.52
2023-02-17T09:24:59.596Z,19.65
2023-02-17T09:27:26.438Z,24.17
2023-02-17T09:29:53.498Z,26.33
2023-02-17T09:32:21.458Z,26.67
2023-02-17T09:34:50.090Z,25.05
2023-02-17T09:37:17.747Z,28.98
2023-02-17T09:39:45.996Z,22.00
2023-02-17T09:42:20.816Z,25.17
2023-02-17T09:44:52.710Z,18.45
2023-02-17T09:47:25.670Z,24.25
2023-02-17T09:50:03.677Z,22.75
2023-02-17T09:52:40.006Z,25.35
2023-02-17T09:55:25.079Z,27.33
2023-02-17T09:58:14.551Z,18.35
2023-02-17T10:01:00.511Z,20.20
2023-02-17T10:03:39.695Z,24.52
2023-02-17T10:06:10.138Z,23.13
2023-02-17T10:08:54.561Z,23.33
2023-02-17T10:11:34.912Z,19.42
2023-02-17T10:14:25.743Z,22.05
2023-02-17T10:16:57.373Z,18.10
2023-02-17T10:20:20.940Z,20.92
2023-02-17T10:22:57.925Z,20.70
2023-02-17T10:26:06.210Z,23.83
2023-02-17T10:28:53.567Z,13.82
2023-02-17T10:31:46.720Z,23.23
2023-02-17T10:34:22.949Z,17.92
2023-02-17T10:37:38.932Z,8.90
2023-02-17T10:40:16.264Z,21.55
2023-02-17T10:42:43.500Z,26.13
2023-02-17T10:45:27.519Z,20.17
2023-02-17T10:48:01.500Z,16.88
2023-02-17T10:50:29.012Z,21.75
2023-02-17T10:52:56.531Z,20.67
2023-02-17T10:55:34.049Z,17.63
2023-02-17T10:58:31.392Z,22.33
2023-02-17T11:00:58.788Z,22.83
2023-02-17T11:03:28.707Z,36.50
2023-02-17T11:06:01.821Z,36.22
2023-02-17T11:08:39.405Z,38.25
2023-02-17T11:11:18.960Z,28.00
2023-02-17T11:14:07.328Z,24.25
2023-02-17T11:16:44.454Z,30.45
2023-02-17T11:19:28.365Z,42.42
2023-02-17T11:21:58.494Z,40.90
2023-02-17T11:24:27.111Z,32.45
2023-02-17T11:27:04.131Z,37.85
2023-02-17T11:29:33.190Z,42.03
2023-02-17T11:32:12.334Z,37.15
2023-02-17T11:34:41.880Z,44.47
2023-02-17T11:37:11.663Z,35.75
2023-02-17T11:39:42.012Z,35.25
2023-02-17T11:42:30.622Z,37.40
2023-02-17T11:45:00.372Z,38.50
2023-02-17T11:47:48.055Z,40.58
2023-02-17T11:50:41.771Z,37.22
2023-02-17T11:56:01.729Z,42.92
2023-02-17T11:58:54.265Z,40.38
2023-02-17T12:01:30.152Z,41.95
2023-02-17T12:04:25.105Z,40.13
2023-02-17T12:07:01.073Z,38.00
2023-02-17T12:09:51.074Z,48.15
2023-02-17T12:12:23.843Z,49.53
2023-02-17T12:15:08.493Z,44.33
2023-02-17T12:17:44.957Z,34.35
2023-02-17T12:20:18.140Z,41.40
2023-02-17T12:22:51.149Z,50.23
2023-02-17T12:25:37.864Z,36.78
2023-02-17T12:28:39.744Z,46.17
2023-02-17T12:31:16.575Z,43.85
2023-02-17T12:33:47.866Z,49.95
2023-02-17T12:36:18.492Z,56.15
2023-02-17T12:38:46.843Z,49.28
2023-02-17T12:41:40.472Z,56.92
2023-02-17T12:44:14.514Z,51.75
2023-02-17T12:46:44.607Z,48.35
2023-02-17T12:49:31.496Z,51.22
2023-02-17T12:52:08.954Z,47.45
2023-02-17T12:54:43.600Z,48.95
2023-02-17T12:57:10.662Z,52.33
2023-02-17T12:59:43.798Z,47.08
2023-02-17T13:02:14.063Z,59.13
2023-02-17T13:04:43.434Z,58.53
2023-02-17T13:07:27.333Z,56.65
2023-02-17T13:09:56.441Z,53.65
2023-02-17T13:12:23.461Z,52.35
2023-02-17T13:15:02.338Z,56.78
2023-02-17T13:17:34.112Z,57.15
2023-02-17T13:20:07.093Z,50.25
2023-02-17T13:22:34.561Z,55.13
2023-02-17T13:25:01.501Z,54.80
2023-02-17T13:27:28.537Z,51.45
2023-02-17T13:30:07.305Z,50.47
2023-02-17T13:32:36.661Z,51.53
2023-02-17T13:35:11.842Z,52.95
2023-02-17T13:37:44.027Z,59.03
2023-02-17T13:40:19.770Z,58.72
2023-02-17T13:42:49.055Z,56.63
2023-02-17T13:45:29.759Z,63.70
2023-02-17T13:48:15.637Z,46.30
2023-02-17T13:50:51.709Z,52.05
2023-02-17T13:53:40.162Z,54.97
2023-02-17T13:56:11.641Z,57.70
2023-02-17T13:58:42.093Z,55.13
2023-02-17T14:01:16.604Z,57.10
2023-02-17T14:03:50.863Z,57.72
2023-02-17T14:06:37.764Z,53.40
2023-02-17T14:09:23.059Z,58.83
2023-02-17T14:11:51.919Z,49.30
2023-02-17T14:14:20.810Z,53.05
2023-02-17T14:17:01.211Z,47.45
2023-02-17T14:19:30.200Z,54.53
2023-02-17T14:22:04.217Z,67.30
2023-02-17T14:24:36.851Z,54.72
2023-02-17T14:27:08.219Z,50.17
2023-02-17T14:29:46.647Z,49.10
2023-02-17T14:32:33.101Z,51.28
2023-02-17T14:35:28.770Z,50.35
2023-02-17T14:37:55.664Z,55.25
2023-02-17T14:40:25.226Z,53.90
2023-02-17T14:42:52.354Z,58.72
2023-02-17T14:45:19.658Z,53.60
2023-02-17T14:47:47.220Z,60.35
2023-02-17T14:50:16.211Z,62.35
2023-02-17T14:52:47.089Z,59.75
2023-02-17T14:55:22.176Z,60.35
2023-02-17T14:57:49.058Z,53.08
2023-02-17T15:00:16.529Z,54.03
2023-02-17T15:02:43.365Z,57.10
2023-02-17T15:05:10.716Z,67.15
2023-02-17T15:07:37.974Z,58.22
2023-02-17T15:10:31.262Z,56.55
2023-02-17T15:13:01.095Z,54.40
2023-02-17T15:15:28.251Z,58.40
2023-02-17T15:17:55.393Z,60.20
2023-02-17T15:20:22.521Z,59.53
2023-02-17T15:22:52.821Z,58.15
2023-02-17T15:25:24.962Z,58.13
2023-02-17T15:27:55.294Z,55.15
2023-02-17T15:30:22.952Z,51.95
2023-02-17T15:32:49.948Z,54.70
2023-02-17T15:35:20.730Z,54.10
2023-02-17T15:37:48.090Z,58.10
2023-02-17T15:40:18.258Z,51.20
2023-02-17T15:42:47.217Z,49.60
2023-02-17T15:45:18.372Z,53.17
2023-02-17T15:47:46.949Z,58.22
2023-02-17T15:50:20.695Z,55.63
2023-02-17T15:55:15.606Z,54.78
2023-02-17T15:57:51.038Z,55.85
2023-02-17T16:00:32.404Z,58.45
2023-02-17T16:03:04.647Z,56.70
2023-02-17T16:05:34.234Z,57.83
2023-02-17T16:08:01.091Z,72.45
2023-02-17T16:10:28.729Z,53.63
2023-02-17T16:12:58.239Z,59.22
2023-02-17T16:15:27.426Z,54.67
2023-02-17T16:17:55.764Z,51.13
2023-02-17T16:20:34.630Z,52.92
2023-02-17T16:23:02.383Z,52.92
2023-02-17T16:25:30.139Z,45.13
2023-02-17T16:27:57.371Z,59.35
2023-02-17T16:30:32.062Z,49.80
2023-02-17T16:32:59.698Z,52.25
2023-02-17T16:35:33.651Z,53.20
2023-02-17T16:38:05.290Z,59.15
2023-02-17T16:40:34.753Z,51.30
2023-02-17T16:43:02.046Z,49.28
2023-02-17T16:45:34.060Z,51.13
2023-02-17T16:48:01.898Z,55.17
2023-02-17T16:50:36.089Z,56.28
2023-02-17T16:53:06.126Z,57.78
2023-02-17T16:55:36.057Z,59.03
2023-02-17T16:58:07.141Z,50.63
2023-02-17T17:00:34.262Z,57.60
2023-02-17T17:03:01.033Z,53.55
2023-02-17T17:05:29.583Z,54.50
2023-02-17T17:08:02.789Z,56.53
2023-02-17T17:10:31.757Z,53.90
2023-02-17T17:12:58.820Z,61.67
2023-02-17T17:15:26.675Z,47.67
2023-02-17T17:17:57.679Z,52.97
2023-02-17T17:20:35.314Z,55.13
2023-02-17T17:23:11.720Z,61.35
2023-02-17T17:25:41.547Z,48.60
2023-02-17T17:28:12.496Z,55.53
2023-02-17T17:30:41.721Z,46.72
2023-02-17T17:33:08.843Z,51.58
2023-02-17T17:35:37.924Z,54.90
2023-02-17T17:38:09.630Z,54.53
2023-02-17T17:40:48.352Z,56.35
2023-02-17T17:43:20.482Z,55.75
2023-02-17T17:45:50.364Z,54.58
2023-02-17T17:48:17.869Z,54.83
2023-02-17T17:50:49.802Z,62.42
2023-02-17T17:53:16.688Z,60.42
2023-02-17T17:55:43.857Z,56.15
2023-02-17T17:58:10.654Z,67.95
2023-02-17T18:00:37.775Z,64.85
2023-02-17T18:03:05.141Z,57.05
2023-02-17T18:05:32.921Z,56.55
2023-02-17T18:08:00.749Z,55.60
2023-02-17T18:10:27.999Z,54.47
2023-02-17T18:12:56.327Z,59.50
2023-02-17T18:15:23.429Z,55.58
2023-02-17T18:17:51.444Z,57.10
2023-02-17T18:20:19.014Z,60.50
2023-02-17T18:22:45.819Z,52.13
2023-02-17T18:25:12.958Z,51.53
2023-02-17T18:27:45.298Z,51.33
2023-02-17T18:30:16.207Z,53.38
2023-02-17T18:32:44.225Z,53.10
2023-02-17T18:35:12.309Z,54.10
2023-02-17T18:37:41.070Z,52.97
2023-02-17T18:40:16.074Z,53.25
2023-02-17T18:42:48.186Z,53.25
2023-02-17T18:45:18.377Z,52.47
2023-02-17T18:47:46.280Z,54.47
2023-02-17T18:50:15.810Z,49.47
2023-02-17T18:52:45.053Z,52.78
2023-02-17T18:55:13.918Z,56.17
2023-02-17T18:57:44.333Z,54.00
2023-02-17T19:00:15.520Z,56.47
2023-02-17T19:02:43.744Z,53.97
2023-02-17T19:05:11.756Z,59.35
2023-02-17T19:07:38.573Z,57.60
2023-02-17T19:10:06.715Z,47.88
2023-02-17T19:12:34.313Z,60.08
2023-02-17T19:15:01.505Z,50.00
2023-02-17T19:17:28.481Z,39.05
2023-02-17T19:19:55.812Z,50.30
2023-02-17T19:22:22.650Z,51.95
2023-02-17T19:24:54.859Z,44.97
2023-02-17T19:27:21.739Z,56.83
2023-02-17T19:29:48.847Z,57.67
2023-02-17T19:32:15.897Z,54.38
2023-02-17T19:34:43.028Z,56.63
2023-02-17T19:37:09.926Z,54.83
2023-02-17T19:39:37.015Z,59.70
2023-02-17T19:42:04.460Z,50.75
2023-02-17T19:44:32.161Z,56.78
2023-02-17T19:47:01.868Z,47.63
2023-02-17T19:49:28.961Z,58.00
2023-02-17T19:51:55.930Z,54.28
2023-02-17T19:54:24.336Z,44.35
2023-02-17T19:56:52.040Z,50.67
2023-02-17T19:59:19.449Z,52.00
2023-02-17T20:01:46.331Z,54.08
2023-02-17T20:04:13.517Z,46.50
2023-02-17T20:06:44.158Z,37.28
2023-02-17T20:09:18.426Z,54.22
2023-02-17T20:11:46.218Z,58.28
2023-02-17T20:14:13.692Z,54.03
2023-02-17T20:16:41.233Z,55.58
2023-02-17T20:19:08.456Z,60.05
2023-02-17T20:21:38.689Z,56.60
2023-02-17T20:24:06.236Z,57.10
2023-02-17T20:26:38.351Z,55.63
2023-02-17T20:29:05.479Z,64.07
2023-02-17T20:31:32.451Z,61.45
2023-02-17T20:34:02.966Z,66.55
2023-02-17T20:36:29.812Z,53.13
2023-02-17T20:38:56.900Z,58.75
2023-02-17T20:41:24.164Z,53.08
2023-02-17T20:43:52.132Z,56.38
2023-02-17T20:46:29.504Z,55.40
2023-02-17T20:48:56.803Z,40.10
2023-02-17T20:51:23.858Z,67.28
2023-02-17T20:53:51.353Z,65.88
2023-02-17T20:56:24.420Z,59.97
2023-02-17T20:58:52.355Z,64.00
2023-02-17T21:01:19.837Z,60.97
2023-02-17T21:03:47.231Z,60.58
2023-02-17T21:06:24.401Z,56.47
2023-02-17T21:08:54.335Z,65.70
2023-02-17T21:11:21.659Z,50.42
2023-02-17T21:13:50.037Z,50.78
2023-02-17T21:16:20.071Z,52.13
2023-02-17T21:18:47.516Z,47.80
2023-02-17T21:21:15.353Z,48.65
2023-02-17T21:23:42.527Z,45.33
2023-02-17T21:26:11.453Z,49.47
2023-02-17T21:28:38.866Z,42.90
2023-02-17T21:31:06.389Z,48.40
2023-02-17T21:33:33.848Z,50.15
2023-02-17T21:36:05.702Z,50.05
2023-02-17T21:38:32.862Z,53.88
2023-02-17T21:41:06.031Z,51.70
2023-02-17T21:43:52.106Z,56.25
2023-02-17T21:46:19.205Z,51.20
2023-02-17T21:48:46.261Z,56.85
2023-02-17T21:51:13.171Z,54.40
2023-02-17T21:53:40.586Z,42.97
2023-02-17T21:56:08.247Z,48.63
2023-02-17T21:58:35.747Z,35.58
2023-02-17T22:01:02.728Z,32.83
2023-02-17T22:03:29.825Z,31.20
2023-02-17T22:05:57.401Z,30.13
2023-02-17T22:08:24.653Z,31.52
2023-02-17T22:10:51.643Z,27.27
2023-02-17T22:13:18.763Z,27.38
2023-02-17T22:15:45.562Z,26.77
2023-02-17T22:18:12.682Z,30.83
2023-02-17T22:20:43.998Z,29.42
2023-02-17T22:23:11.133Z,28.73
2023-02-17T22:25:41.590Z,28.45
2023-02-17T22:28:10.567Z,26.23
2023-02-17T22:30:38.048Z,25.25
2023-02-17T22:33:05.160Z,31.25
2023-02-17T22:35:31.997Z,28.55
2023-02-17T22:37:59.733Z,24.70
2023-02-17T22:40:26.873Z,23.92
2023-02-17T22:42:54.005Z,23.67
2023-02-17T22:45:20.757Z,19.02
2023-02-17T22:47:47.818Z,20.67
2023-02-17T22:50:14.707Z,24.27
2023-02-17T22:52:41.816Z,19.80
2023-02-17T22:55:08.683Z,18.20
2023-02-17T22:57:35.785Z,21.45
2023-02-17T23:00:02.602Z,14.25
2023-02-17T23:02:29.673Z,13.32
2023-02-17T23:04:56.786Z,14.60
2023-02-17T23:07:26.673Z,10.85
2023-02-17T23:09:53.474Z,13.57
2023-02-17T23:12:20.814Z,15.07
2023-02-17T23:14:47.596Z,10.93
2023-02-17T23:17:15.588Z,11.98
2023-02-17T23:19:42.534Z,10.82
2023-02-17T23:22:16.287Z,14.98
2023-02-17T23:24:44.854Z,13.48
2023-02-17T23:27:12.867Z,14.23
2023-02-17T23:29:41.015Z,10.48
2023-02-17T23:32:08.164Z,11.60
2023-02-17T23:34:35.245Z,11.23
2023-02-17T23:37:02.373Z,12.50
2023-02-17T23:39:29.165Z,14.32
2023-02-17T23:41:56.365Z,10.57
2023-02-17T23:44:23.245Z,9.85
2023-02-17T23:46:50.285Z,10.40
2023-02-17T23:49:17.854Z,9.90
2023-02-17T23:51:46.916Z,8.25
2023-02-17T23:54:14.352Z,8.90
2023-02-17T23:56:41.604Z,9.07
2023-02-17T23:59:08.598Z,9.43
